Time;durP1;ratioP1;P1;durP2;ratioP2;P2;SDS_P1;SDS_P2;PMS_P1;PMS_P2;Temp;Humidity;BMP_temperature;BMP_pressure;BME280_temperature;BME280_humidity;BME280_pressure;Samples;Min_cycle;Max_cycle;Signal;HPM_P1;HPM_P2
2023/10/29 00:00:52;;;;;;;;;;;22.50;87.30;;;;;;5114062;28;19908;-73
2023/10/29 00:03:19;;;;;;;;;;;22.50;87.60;;;;;;5113117;28;20004;-73
2023/10/29 00:05:46;;;;;;;;;;;22.60;87.30;;;;;;5113243;28;20356;-72
2023/10/29 00:08:12;;;;;;;;;;;22.70;86.80;;;;;;5113468;28;19908;-72
2023/10/29 00:10:39;;;;;;;;;;;22.80;87.60;;;;;;5113248;28;19950;-75
2023/10/29 00:13:06;;;;;;;;;;;23.00;86.50;;;;;;5094585;28;19916;-73
2023/10/29 00:15:33;;;;;;;;;;;23.20;86.20;;;;;;5112470;28;20268;-73
2023/10/29 00:18:01;;;;;;;;;;;23.30;85.70;;;;;;5094057;28;19915;-72
2023/10/29 00:20:27;;;;;;;;;;;23.40;84.60;;;;;;5112709;28;19908;-71
2023/10/29 00:22:54;;;;;;;;;;;23.40;84.70;;;;;;5112869;28;19958;-73
2023/10/29 00:25:20;;;;;;;;;;;23.50;84.90;;;;;;5112976;28;19915;-71
2023/10/29 00:27:47;;;;;;;;;;;23.70;83.90;;;;;;5112759;28;19907;-72
2023/10/29 00:30:14;;;;;;;;;;;23.60;82.00;;;;;;5112750;28;19919;-72
2023/10/29 00:32:40;;;;;;;;;;;23.70;83.30;;;;;;5112811;28;19945;-73
2023/10/29 00:35:07;;;;;;;;;;;23.80;83.20;;;;;;5112783;28;19954;-74
2023/10/29 00:37:34;;;;;;;;;;;23.90;83.10;;;;;;5095004;28;19912;-73
2023/10/29 00:40:00;;;;;;;;;;;24.00;81.60;;;;;;5113211;28;19915;-73
2023/10/29 00:42:27;;;;;;;;;;;24.00;80.90;;;;;;5109738;28;19908;-74
2023/10/29 00:44:54;;;;;;;;;;;24.10;80.70;;;;;;5111056;28;20432;-75
2023/10/29 00:47:20;;;;;;;;;;;24.30;80.90;;;;;;5112438;28;19947;-73
2023/10/29 00:49:48;;;;;;;;;;;24.60;81.10;;;;;;5111760;28;20003;-72
2023/10/29 00:52:15;;;;;;;;;;;24.80;81.20;;;;;;5112162;28;19911;-74
2023/10/29 00:54:42;;;;;;;;;;;25.00;79.60;;;;;;5094155;28;19915;-74
2023/10/29 00:57:09;;;;;;;;;;;24.90;75.80;;;;;;5112265;28;19908;-74
2023/10/29 00:59:35;;;;;;;;;;;24.80;76.50;;;;;;5112575;28;20060;-74
2023/10/29 01:02:02;;;;;;;;;;;25.00;79.20;;;;;;5111552;28;19931;-74
2023/10/29 01:04:29;;;;;;;;;;;25.30;78.20;;;;;;5112541;28;20379;-74
2023/10/29 01:06:55;;;;;;;;;;;25.50;77.90;;;;;;5112692;28;19911;-74
2023/10/29 01:09:22;;;;;;;;;;;25.70;77.10;;;;;;5112481;28;19951;-74
2023/10/29 01:11:49;;;;;;;;;;;25.80;75.80;;;;;;5109042;28;19920;-75
2023/10/29 01:14:15;;;;;;;;;;;25.90;76.60;;;;;;5111289;28;19916;-74
2023/10/29 01:16:42;;;;;;;;;;;26.20;75.80;;;;;;5109689;28;19908;-75
2023/10/29 01:19:09;;;;;;;;;;;26.30;75.00;;;;;;5109685;28;19914;-73
2023/10/29 01:21:35;;;;;;;;;;;26.40;75.90;;;;;;5110539;28;20309;-73
2023/10/29 01:24:02;;;;;;;;;;;26.50;77.80;;;;;;5110389;28;19908;-74
2023/10/29 01:26:29;;;;;;;;;;;26.70;75.50;;;;;;5110234;28;19908;-74
2023/10/29 01:28:55;;;;;;;;;;;26.90;75.50;;;;;;5107675;28;19907;-72
2023/10/29 01:31:22;;;;;;;;;;;27.00;76.00;;;;;;5092962;28;19961;-75
2023/10/29 01:33:48;;;;;;;;;;;27.30;77.90;;;;;;5111904;28;20440;-72
2023/10/29 01:36:15;;;;;;;;;;;27.40;78.90;;;;;;5109253;28;19956;-73
2023/10/29 01:38:42;;;;;;;;;;;27.60;77.50;;;;;;5110954;28;20348;-74
2023/10/29 01:41:09;;;;;;;;;;;27.60;77.40;;;;;;5091177;28;19964;-74
2023/10/29 01:43:35;;;;;;;;;;;27.40;76.90;;;;;;5111452;28;19964;-76
2023/10/29 01:46:02;;;;;;;;;;;27.40;77.40;;;;;;5111660;28;19915;-72
2023/10/29 01:48:28;;;;;;;;;;;27.60;77.40;;;;;;5111335;28;20004;-73
2023/10/29 01:50:56;;;;;;;;;;;27.80;77.30;;;;;;5111518;28;20276;-74
2023/10/29 01:53:22;;;;;;;;;;;27.80;74.00;;;;;;5111939;28;20284;-75
2023/10/29 01:55:49;;;;;;;;;;;27.80;76.90;;;;;;5108825;28;19990;-75
2023/10/29 01:58:16;;;;;;;;;;;27.80;77.90;;;;;;5111740;28;19931;-73
2023/10/29 02:00:42;;;;;;;;;;;27.90;78.70;;;;;;5093180;28;19908;-73
2023/10/29 02:03:09;;;;;;;;;;;28.10;75.20;;;;;;5111569;28;19908;-73
2023/10/29 02:05:35;;;;;;;;;;;28.10;75.50;;;;;;5111807;28;19912;-75
2023/10/29 02:08:02;;;;;;;;;;;28.00;74.90;;;;;;5111892;28;20363;-73
2023/10/29 02:10:29;;;;;;;;;;;28.10;75.60;;;;;;5111615;28;20014;-73
2023/10/29 02:12:56;;;;;;;;;;;28.10;74.70;;;;;;5111362;28;19916;-74
2023/10/29 02:15:23;;;;;;;;;;;28.10;74.20;;;;;;5114175;28;19946;-74
2023/10/29 02:17:49;;;;;;;;;;;27.90;73.80;;;;;;5112672;28;19991;-73
2023/10/29 02:20:17;;;;;;;;;;;27.60;74.00;;;;;;5115290;28;19908;-73
2023/10/29 02:22:43;;;;;;;;;;;27.60;74.30;;;;;;5115073;28;19916;-73
2023/10/29 02:25:10;;;;;;;;;;;27.70;74.30;;;;;;5112598;28;19908;-73
2023/10/29 02:27:37;;;;;;;;;;;27.90;74.50;;;;;;5114794;28;19968;-75
2023/10/29 02:30:03;;;;;;;;;;;27.90;73.40;;;;;;5114804;28;19972;-72
2023/10/29 02:32:30;;;;;;;;;;;28.20;74.80;;;;;;5112103;28;20356;-76
2023/10/29 02:34:57;;;;;;;;;;;28.30;74.10;;;;;;5115161;28;19916;-73
2023/10/29 02:37:23;;;;;;;;;;;28.80;72.00;;;;;;5115038;28;19908;-74
2023/10/29 02:39:50;;;;;;;;;;;29.40;70.90;;;;;;5112048;28;20280;-73
2023/10/29 02:42:17;;;;;;;;;;;30.00;70.30;;;;;;5114705;28;19919;-72
2023/10/29 02:44:44;;;;;;;;;;;30.70;69.20;;;;;;5114520;28;19907;-76
2023/10/29 02:47:10;;;;;;;;;;;31.10;68.30;;;;;;5114340;28;20306;-74
2023/10/29 02:49:37;;;;;;;;;;;31.40;68.60;;;;;;5114543;28;19934;-75
2023/10/29 02:52:04;;;;;;;;;;;32.30;66.90;;;;;;5114716;28;20366;-72
2023/10/29 02:54:30;;;;;;;;;;;32.40;65.90;;;;;;5114377;28;19907;-74
2023/10/29 02:56:57;;;;;;;;;;;32.60;65.40;;;;;;5113932;28;19915;-75
2023/10/29 02:59:24;;;;;;;;;;;33.30;64.40;;;;;;5114512;28;19912;-72
2023/10/29 03:01:50;;;;;;;;;;;33.10;64.50;;;;;;5114594;28;19930;-74
2023/10/29 03:04:17;;;;;;;;;;;33.70;63.50;;;;;;5114426;28;19912;-72
2023/10/29 03:06:43;;;;;;;;;;;34.20;63.30;;;;;;5114176;28;19908;-74
2023/10/29 03:09:11;;;;;;;;;;;35.10;60.80;;;;;;5114307;28;19914;-74
2023/10/29 03:11:37;;;;;;;;;;;35.60;61.00;;;;;;5113440;28;19928;-73
2023/10/29 03:14:04;;;;;;;;;;;35.60;60.00;;;;;;5113922;28;19908;-74
2023/10/29 03:16:31;;;;;;;;;;;36.30;59.20;;;;;;5113885;28;19908;-73
2023/10/29 03:18:57;;;;;;;;;;;35.90;59.00;;;;;;5113980;28;19957;-72
2023/10/29 03:21:24;;;;;;;;;;;36.00;58.60;;;;;;5111492;28;19996;-73
2023/10/29 03:23:50;;;;;;;;;;;36.90;59.60;;;;;;5114302;28;20025;-74
2023/10/29 03:26:17;;;;;;;;;;;36.90;56.60;;;;;;5114282;28;20398;-77
2023/10/29 03:28:44;;;;;;;;;;;37.40;56.60;;;;;;5114426;28;19994;-74
2023/10/29 03:31:14;;;;;;;;;;;37.60;55.70;;;;;;5113938;28;20053;-74
2023/10/29 03:33:40;;;;;;;;;;;36.80;55.60;;;;;;5114050;28;19908;-74
2023/10/29 03:36:08;;;;;;;;;;;37.10;55.50;;;;;;5114351;28;19918;-72
2023/10/29 03:38:35;;;;;;;;;;;36.90;55.30;;;;;;5114026;28;19914;-73
2023/10/29 03:41:02;;;;;;;;;;;36.50;55.10;;;;;;5113994;28;19999;-72
2023/10/29 03:43:28;;;;;;;;;;;36.20;55.20;;;;;;5114077;28;19911;-73
2023/10/29 03:45:55;;;;;;;;;;;35.60;55.50;;;;;;5113795;28;19915;-74
2023/10/29 03:48:22;;;;;;;;;;;35.50;56.70;;;;;;5113693;28;19927;-73
2023/10/29 03:50:48;;;;;;;;;;;36.10;56.70;;;;;;5113373;28;19916;-72
2023/10/29 03:53:15;;;;;;;;;;;35.80;56.20;;;;;;5095399;28;19907;-73
2023/10/29 03:55:41;;;;;;;;;;;36.10;55.60;;;;;;5113722;28;19912;-75
2023/10/29 03:58:08;;;;;;;;;;;36.70;54.90;;;;;;5113536;28;19947;-73
2023/10/29 04:00:35;;;;;;;;;;;37.70;54.70;;;;;;5113949;28;19915;-73
2023/10/29 04:03:02;;;;;;;;;;;38.40;53.20;;;;;;5113602;28;19918;-74
2023/10/29 04:05:28;;;;;;;;;;;38.20;53.70;;;;;;5113981;28;20317;-74
2023/10/29 04:07:55;;;;;;;;;;;38.50;52.60;;;;;;5113493;28;20018;-74
2023/10/29 04:10:21;;;;;;;;;;;37.70;53.30;;;;;;5095387;28;19918;-72
2023/10/29 04:12:48;;;;;;;;;;;38.20;53.00;;;;;;5113098;28;19912;-73
2023/10/29 04:15:15;;;;;;;;;;;37.40;53.40;;;;;;5113829;28;19908;-74
2023/10/29 04:17:41;;;;;;;;;;;37.30;53.70;;;;;;5113313;28;19968;-73
2023/10/29 04:20:08;;;;;;;;;;;37.00;53.70;;;;;;5113155;28;19908;-72
2023/10/29 04:22:36;;;;;;;;;;;36.50;54.50;;;;;;5095038;28;19922;-73
2023/10/29 04:25:03;;;;;;;;;;;36.50;54.30;;;;;;5112975;28;19908;-74
2023/10/29 04:27:29;;;;;;;;;;;36.80;53.30;;;;;;5113327;28;19951;-74
2023/10/29 04:29:56;;;;;;;;;;;36.40;52.90;;;;;;5112936;28;19941;-72
2023/10/29 04:32:23;;;;;;;;;;;36.30;55.20;;;;;;5113200;28;19912;-73
2023/10/29 04:34:49;;;;;;;;;;;36.70;54.70;;;;;;5113024;28;20289;-74
2023/10/29 04:37:16;;;;;;;;;;;37.60;54.80;;;;;;5112613;28;19904;-72
2023/10/29 04:39:44;;;;;;;;;;;37.10;53.50;;;;;;5113218;28;19908;-74
2023/10/29 04:42:10;;;;;;;;;;;36.50;55.70;;;;;;5112746;28;19930;-75
2023/10/29 04:44:37;;;;;;;;;;;37.00;54.60;;;;;;5112958;28;20299;-74
2023/10/29 04:47:04;;;;;;;;;;;36.90;54.80;;;;;;5112955;28;20614;-74
2023/10/29 04:49:31;;;;;;;;;;;37.20;55.30;;;;;;5108548;28;19936;-73
2023/10/29 04:51:57;;;;;;;;;;;37.30;54.40;;;;;;5107193;28;19962;-75
2023/10/29 04:54:24;;;;;;;;;;;37.50;53.40;;;;;;5095840;28;19909;-73
2023/10/29 04:56:51;;;;;;;;;;;37.20;54.10;;;;;;5103398;28;19960;-73
2023/10/29 04:59:17;;;;;;;;;;;37.60;53.00;;;;;;5112827;28;19908;-74
2023/10/29 05:01:44;;;;;;;;;;;37.40;53.60;;;;;;5112319;28;19908;-72
2023/10/29 05:04:11;;;;;;;;;;;36.90;54.30;;;;;;5112971;28;20032;-74
2023/10/29 05:06:37;;;;;;;;;;;36.20;54.10;;;;;;5111180;28;19908;-72
2023/10/29 05:09:04;;;;;;;;;;;36.10;54.20;;;;;;5109811;28;19912;-75
2023/10/29 05:11:31;;;;;;;;;;;35.80;54.70;;;;;;5103459;28;19988;-73
2023/10/29 05:13:58;;;;;;;;;;;35.10;56.30;;;;;;5111759;28;19969;-73
2023/10/29 05:16:25;;;;;;;;;;;34.70;55.10;;;;;;5112015;28;19954;-75
2023/10/29 05:18:51;;;;;;;;;;;34.20;56.90;;;;;;5112119;28;19916;-73
2023/10/29 05:21:19;;;;;;;;;;;34.40;56.00;;;;;;5112479;28;19915;-73
2023/10/29 05:23:45;;;;;;;;;;;34.80;56.60;;;;;;5112759;28;19922;-73
2023/10/29 05:26:12;;;;;;;;;;;34.70;55.80;;;;;;5108408;28;19912;-74
2023/10/29 05:28:39;;;;;;;;;;;35.50;56.60;;;;;;5112234;28;19908;-74
2023/10/29 05:31:05;;;;;;;;;;;36.20;55.80;;;;;;5112093;28;19946;-73
2023/10/29 05:33:32;;;;;;;;;;;36.10;55.80;;;;;;5112362;28;20268;-73
2023/10/29 05:35:59;;;;;;;;;;;35.20;56.60;;;;;;5098531;28;19912;-74
2023/10/29 05:38:25;;;;;;;;;;;35.60;56.10;;;;;;5091766;28;20404;-73
2023/10/29 05:40:52;;;;;;;;;;;35.30;56.40;;;;;;5092373;28;19908;-74
2023/10/29 05:43:19;;;;;;;;;;;34.00;57.90;;;;;;5093741;28;19912;-77
2023/10/29 05:45:45;;;;;;;;;;;33.30;58.80;;;;;;5112407;28;19931;-75
2023/10/29 05:48:12;;;;;;;;;;;33.90;58.30;;;;;;5111043;28;19912;-73
2023/10/29 05:50:39;;;;;;;;;;;34.80;57.20;;;;;;5105382;28;19920;-74
2023/10/29 05:53:05;;;;;;;;;;;34.30;58.70;;;;;;5115385;28;19949;-73
2023/10/29 05:55:33;;;;;;;;;;;34.60;58.90;;;;;;5105322;28;19912;-74
2023/10/29 05:58:00;;;;;;;;;;;34.80;57.00;;;;;;5094974;28;20253;-73
2023/10/29 06:00:27;;;;;;;;;;;34.20;58.80;;;;;;5114740;28;19915;-75
2023/10/29 06:02:54;;;;;;;;;;;34.40;57.90;;;;;;5114006;28;20279;-74
2023/10/29 06:05:21;;;;;;;;;;;33.60;58.90;;;;;;5114329;28;19912;-76
2023/10/29 06:07:48;;;;;;;;;;;32.30;60.70;;;;;;5114456;28;20249;-74
2023/10/29 06:10:14;;;;;;;;;;;32.00;61.90;;;;;;5113895;28;19916;-72
2023/10/29 06:12:41;;;;;;;;;;;31.90;62.70;;;;;;5115336;28;19908;-73
2023/10/29 06:15:09;;;;;;;;;;;32.10;62.50;;;;;;5116022;28;19918;-74
2023/10/29 06:17:36;;;;;;;;;;;32.70;61.20;;;;;;5115986;28;19908;-73
2023/10/29 06:20:04;;;;;;;;;;;32.40;61.20;;;;;;5097710;28;20413;-73
2023/10/29 06:22:31;;;;;;;;;;;32.60;61.90;;;;;;5115584;28;20262;-74
2023/10/29 06:24:58;;;;;;;;;;;33.20;62.50;;;;;;5115200;28;19918;-71
2023/10/29 06:27:24;;;;;;;;;;;33.10;61.00;;;;;;5115558;28;19947;-72
2023/10/29 06:29:51;;;;;;;;;;;32.70;61.50;;;;;;5115957;28;20010;-75
2023/10/29 06:32:18;;;;;;;;;;;32.60;60.90;;;;;;5115908;28;19914;-76
2023/10/29 06:34:44;;;;;;;;;;;31.80;62.70;;;;;;5097145;28;19908;-75
2023/10/29 06:37:12;;;;;;;;;;;30.60;64.00;;;;;;5114822;28;19908;-73
2023/10/29 06:39:38;;;;;;;;;;;29.90;65.50;;;;;;5115037;28;19907;-74
2023/10/29 06:42:05;;;;;;;;;;;29.60;65.60;;;;;;5114688;28;20349;-74
2023/10/29 06:44:32;;;;;;;;;;;28.60;67.50;;;;;;5114957;28;19914;-72
2023/10/29 06:46:58;;;;;;;;;;;28.00;68.80;;;;;;5114518;28;20292;-75
2023/10/29 06:49:25;;;;;;;;;;;27.70;70.20;;;;;;5114963;28;19924;-75
2023/10/29 06:51:53;;;;;;;;;;;27.40;70.40;;;;;;5114579;28;20016;-75
2023/10/29 06:54:20;;;;;;;;;;;27.00;71.20;;;;;;5114837;28;19908;-74
2023/10/29 06:56:47;;;;;;;;;;;26.40;71.40;;;;;;5114928;28;19947;-73
2023/10/29 06:59:14;;;;;;;;;;;26.10;71.60;;;;;;5114926;28;19915;-74
2023/10/29 07:01:40;;;;;;;;;;;25.60;73.40;;;;;;5114013;28;19915;-75
2023/10/29 07:04:08;;;;;;;;;;;25.40;74.90;;;;;;5096551;28;19918;-74
2023/10/29 07:06:37;;;;;;;;;;;25.10;76.60;;;;;;5114686;28;19908;-75
2023/10/29 07:09:04;;;;;;;;;;;24.60;77.90;;;;;;5114511;28;19986;-77
2023/10/29 07:11:30;;;;;;;;;;;24.20;79.50;;;;;;5113985;28;20006;-73
2023/10/29 07:13:57;;;;;;;;;;;24.00;81.10;;;;;;5114630;28;20335;-76
2023/10/29 07:16:24;;;;;;;;;;;23.90;81.60;;;;;;5115065;28;19986;-77
2023/10/29 07:18:50;;;;;;;;;;;24.00;82.80;;;;;;5113832;28;19912;-75
2023/10/29 07:21:18;;;;;;;;;;;23.80;83.30;;;;;;5113577;28;19918;-74
2023/10/29 07:23:45;;;;;;;;;;;23.90;83.30;;;;;;5113220;28;19908;-73
2023/10/29 07:26:13;;;;;;;;;;;23.80;84.30;;;;;;5113929;28;19908;-74
2023/10/29 07:28:41;;;;;;;;;;;23.80;86.10;;;;;;5113813;28;19908;-76
2023/10/29 07:31:07;;;;;;;;;;;23.60;86.80;;;;;;5078113;28;19931;-75
2023/10/29 07:33:34;;;;;;;;;;;23.60;87.60;;;;;;5114225;28;20386;-75
2023/10/29 07:36:03;;;;;;;;;;;23.50;87.90;;;;;;5113988;28;19939;-76
2023/10/29 07:38:30;;;;;;;;;;;23.50;88.20;;;;;;5113886;28;19907;-75
2023/10/29 07:40:57;;;;;;;;;;;23.30;89.50;;;;;;5113484;28;19915;-73
2023/10/29 07:43:25;;;;;;;;;;;23.00;90.30;;;;;;5114328;28;19968;-74
2023/10/29 07:45:52;;;;;;;;;;;22.80;90.80;;;;;;5114073;28;19996;-73
2023/10/29 07:48:21;;;;;;;;;;;22.60;91.40;;;;;;5114077;28;20390;-74
2023/10/29 07:50:51;;;;;;;;;;;22.40;92.40;;;;;;5095759;28;19923;-75
2023/10/29 07:53:19;;;;;;;;;;;22.40;92.60;;;;;;5114010;28;19919;-74
2023/10/29 07:55:45;;;;;;;;;;;22.30;93.10;;;;;;5113610;28;20276;-73
2023/10/29 07:58:12;;;;;;;;;;;22.30;93.40;;;;;;5113754;28;19908;-73
2023/10/29 08:00:39;;;;;;;;;;;22.20;94.10;;;;;;5113583;28;19908;-74
2023/10/29 08:03:06;;;;;;;;;;;22.10;94.70;;;;;;5113310;28;19914;-74
2023/10/29 08:05:33;;;;;;;;;;;22.10;95.40;;;;;;5113721;28;19940;-73
2023/10/29 08:08:01;;;;;;;;;;;22.00;95.90;;;;;;5113896;28;19912;-72
2023/10/29 08:10:28;;;;;;;;;;;21.80;96.50;;;;;;5114101;28;19912;-74
2023/10/29 08:12:54;;;;;;;;;;;21.80;97.10;;;;;;5113817;28;20417;-73
2023/10/29 08:15:21;;;;;;;;;;;21.80;97.50;;;;;;5113824;28;19947;-72
2023/10/29 08:17:48;;;;;;;;;;;21.60;97.90;;;;;;5112822;28;19962;-74
2023/10/29 08:20:14;;;;;;;;;;;21.50;98.70;;;;;;5113136;28;19915;-73
2023/10/29 08:22:41;;;;;;;;;;;21.40;99.40;;;;;;5113241;28;19908;-72
2023/10/29 08:25:08;;;;;;;;;;;21.30;99.90;;;;;;5113022;28;19951;-73
2023/10/29 08:27:35;;;;;;;;;;;21.20;99.90;;;;;;5113310;28;19953;-73
2023/10/29 08:30:02;;;;;;;;;;;21.20;99.90;;;;;;5113198;28;19924;-73
2023/10/29 08:32:32;;;;;;;;;;;21.10;99.90;;;;;;5113694;28;20011;-73
2023/10/29 08:34:59;;;;;;;;;;;21.10;99.90;;;;;;5113522;28;19915;-73
2023/10/29 08:37:26;;;;;;;;;;;21.10;99.90;;;;;;5095252;28;19932;-74
2023/10/29 08:39:55;;;;;;;;;;;21.00;99.90;;;;;;5112886;28;19972;-75
2023/10/29 08:42:22;;;;;;;;;;;20.90;99.90;;;;;;5113508;28;19918;-75
2023/10/29 08:44:49;;;;;;;;;;;20.90;99.90;;;;;;5094636;28;19908;-76
2023/10/29 08:47:15;;;;;;;;;;;20.90;99.90;;;;;;5113211;28;19908;-75
2023/10/29 08:49:42;;;;;;;;;;;20.70;99.90;;;;;;5108495;28;20372;-74
2023/10/29 08:52:09;;;;;;;;;;;20.70;99.90;;;;;;5098642;28;20284;-75
2023/10/29 08:54:39;;;;;;;;;;;20.60;99.90;;;;;;5099960;28;21327;-73
2023/10/29 08:57:06;;;;;;;;;;;20.50;99.90;;;;;;5098608;28;19912;-72
2023/10/29 08:59:32;;;;;;;;;;;20.50;99.90;;;;;;5111387;28;19908;-75
2023/10/29 09:01:59;;;;;;;;;;;20.50;99.90;;;;;;5111793;28;20002;-74
2023/10/29 09:04:26;;;;;;;;;;;20.40;99.90;;;;;;5112500;28;20276;-74
2023/10/29 09:06:52;;;;;;;;;;;20.40;99.90;;;;;;5111869;28;19927;-73
2023/10/29 09:09:19;;;;;;;;;;;20.30;99.90;;;;;;5112026;28;20356;-73
2023/10/29 09:11:46;;;;;;;;;;;20.40;99.90;;;;;;5112389;28;19927;-73
2023/10/29 09:14:13;;;;;;;;;;;20.40;99.90;;;;;;5112525;28;20340;-77
2023/10/29 09:16:40;;;;;;;;;;;20.30;99.90;;;;;;5112229;28;19912;-75
2023/10/29 09:19:07;;;;;;;;;;;20.20;99.90;;;;;;5112913;28;19935;-75
2023/10/29 09:21:34;;;;;;;;;;;20.20;99.90;;;;;;5112825;28;20367;-73
2023/10/29 09:24:00;;;;;;;;;;;20.20;99.90;;;;;;5115173;28;19907;-73
2023/10/29 09:26:27;;;;;;;;;;;20.20;99.90;;;;;;5108107;28;19916;-75
2023/10/29 09:28:53;;;;;;;;;;;20.10;99.90;;;;;;5117083;28;20276;-73
2023/10/29 09:31:20;;;;;;;;;;;20.00;99.90;;;;;;5115884;28;19926;-74
2023/10/29 09:33:47;;;;;;;;;;;20.10;99.90;;;;;;5116630;28;19916;-74
2023/10/29 09:36:13;;;;;;;;;;;20.00;99.90;;;;;;5106293;28;19919;-76
2023/10/29 09:38:41;;;;;;;;;;;20.00;99.90;;;;;;5112297;28;21484;-73
2023/10/29 09:41:08;;;;;;;;;;;20.00;99.90;;;;;;5110596;28;19912;-72
2023/10/29 09:43:40;;;;;;;;;;;20.10;99.90;;;;;;5098115;28;19991;-74
2023/10/29 09:46:07;;;;;;;;;;;20.10;99.90;;;;;;5098543;28;19908;-73
2023/10/29 09:48:34;;;;;;;;;;;20.10;99.90;;;;;;5112965;28;19938;-74
2023/10/29 09:51:02;;;;;;;;;;;20.00;99.90;;;;;;5115370;28;19920;-74
2023/10/29 09:53:29;;;;;;;;;;;20.10;99.90;;;;;;5116035;28;19911;-74
2023/10/29 09:55:56;;;;;;;;;;;20.00;99.90;;;;;;5097545;28;19915;-74
2023/10/29 09:58:24;;;;;;;;;;;20.00;99.90;;;;;;5115640;28;19908;-74
2023/10/29 10:00:51;;;;;;;;;;;20.10;99.90;;;;;;5115917;28;19908;-73
2023/10/29 10:03:18;;;;;;;;;;;20.00;99.90;;;;;;5114935;28;19914;-74
2023/10/29 10:05:47;;;;;;;;;;;20.10;99.90;;;;;;5115159;28;20566;-73
2023/10/29 10:08:14;;;;;;;;;;;20.10;99.90;;;;;;5115145;28;20361;-74
2023/10/29 10:10:42;;;;;;;;;;;20.10;99.90;;;;;;5097595;28;19920;-74
2023/10/29 10:13:09;;;;;;;;;;;20.00;99.90;;;;;;5116155;28;20393;-74
2023/10/29 10:15:37;;;;;;;;;;;20.00;99.90;;;;;;5116469;28;20254;-74
2023/10/29 10:18:07;;;;;;;;;;;20.00;99.90;;;;;;5116400;28;19907;-74
2023/10/29 10:20:35;;;;;;;;;;;20.00;99.90;;;;;;5097633;28;19908;-75
2023/10/29 10:23:07;;;;;;;;;;;20.00;99.90;;;;;;5114637;28;20323;-74
2023/10/29 10:25:34;;;;;;;;;;;20.00;99.90;;;;;;5115800;28;19912;-73
2023/10/29 10:28:02;;;;;;;;;;;19.90;99.90;;;;;;5106352;28;19968;-72
2023/10/29 10:30:30;;;;;;;;;;;20.00;99.90;;;;;;5095481;28;20007;-73
2023/10/29 10:33:09;;;;;;;;;;;20.00;99.90;;;;;;5115604;28;19912;-75
2023/10/29 10:35:51;;;;;;;;;;;19.90;99.90;;;;;;5113826;28;19915;-73
2023/10/29 10:38:19;;;;;;;;;;;20.00;99.90;;;;;;5094771;28;19912;-73
2023/10/29 10:40:47;;;;;;;;;;;20.00;99.90;;;;;;5095285;28;19908;-73
2023/10/29 10:43:20;;;;;;;;;;;20.00;99.90;;;;;;5094516;28;20003;-72
2023/10/29 10:45:50;;;;;;;;;;;19.90;99.90;;;;;;5094504;28;19950;-74
2023/10/29 10:48:17;;;;;;;;;;;19.90;99.90;;;;;;5094394;28;19920;-73
2023/10/29 10:50:44;;;;;;;;;;;19.90;99.90;;;;;;5105247;28;20281;-73
2023/10/29 10:53:11;;;;;;;;;;;19.80;99.90;;;;;;5094764;28;19999;-73
2023/10/29 10:55:38;;;;;;;;;;;19.90;99.90;;;;;;5094948;28;19908;-73
2023/10/29 10:58:05;;;;;;;;;;;19.80;99.90;;;;;;5095172;28;19908;-74
2023/10/29 11:00:32;;;;;;;;;;;19.80;99.90;;;;;;5095704;28;19912;-75
2023/10/29 11:02:59;;;;;;;;;;;19.70;99.90;;;;;;5108961;28;20010;-74
2023/10/29 11:05:30;;;;;;;;;;;19.70;99.90;;;;;;5094717;28;20020;-73
2023/10/29 11:07:58;;;;;;;;;;;19.70;99.90;;;;;;5094550;28;19908;-74
2023/10/29 11:10:28;;;;;;;;;;;19.70;99.90;;;;;;5094941;28;19916;-74
2023/10/29 11:12:54;;;;;;;;;;;19.70;99.90;;;;;;5095212;28;19916;-76
2023/10/29 11:15:22;;;;;;;;;;;19.70;99.90;;;;;;5101460;28;19915;-74
2023/10/29 11:17:55;;;;;;;;;;;19.60;99.90;;;;;;5114407;28;19946;-74
2023/10/29 11:20:36;;;;;;;;;;;19.60;99.90;;;;;;5114651;28;20279;-73
2023/10/29 11:23:09;;;;;;;;;;;19.70;99.90;;;;;;5096010;28;19967;-73
2023/10/29 11:25:36;;;;;;;;;;;19.60;99.90;;;;;;5094620;28;19911;-73
2023/10/29 11:28:03;;;;;;;;;;;19.60;99.90;;;;;;5108950;28;20312;-74
2023/10/29 11:30:30;;;;;;;;;;;19.50;99.90;;;;;;5098783;28;19927;-73
2023/10/29 11:33:19;;;;;;;;;;;19.60;99.90;;;;;;5093924;28;19915;-74
2023/10/29 11:35:46;;;;;;;;;;;19.60;99.90;;;;;;5094072;28;19943;-73
2023/10/29 11:38:33;;;;;;;;;;;19.50;99.90;;;;;;5094353;28;19961;-75
2023/10/29 11:40:59;;;;;;;;;;;19.50;99.90;;;;;;5093863;28;19915;-73
2023/10/29 11:43:27;;;;;;;;;;;19.40;99.90;;;;;;5096042;28;20387;-73
2023/10/29 11:46:00;;;;;;;;;;;19.50;99.90;;;;;;5113299;28;19912;-73
2023/10/29 11:48:29;;;;;;;;;;;19.50;99.90;;;;;;5091987;28;19926;-73
2023/10/29 11:51:08;;;;;;;;;;;19.50;99.90;;;;;;5093423;28;20373;-74
2023/10/29 11:53:38;;;;;;;;;;;19.40;99.90;;;;;;5093078;28;19908;-75
2023/10/29 11:56:07;;;;;;;;;;;19.40;99.90;;;;;;5093558;28;20131;-75
2023/10/29 11:58:34;;;;;;;;;;;19.40;99.90;;;;;;5091454;28;20010;-74
2023/10/29 12:01:01;;;;;;;;;;;19.40;99.90;;;;;;5093701;28;19908;-73
2023/10/29 12:03:29;;;;;;;;;;;19.40;99.90;;;;;;5093762;28;20042;-73
2023/10/29 12:05:56;;;;;;;;;;;19.40;99.90;;;;;;5086226;28;19912;-73
2023/10/29 12:08:23;;;;;;;;;;;19.40;99.90;;;;;;5078318;28;19916;-72
2023/10/29 12:10:50;;;;;;;;;;;19.30;99.90;;;;;;5092283;28;19920;-74
2023/10/29 12:13:18;;;;;;;;;;;19.30;99.90;;;;;;5093315;28;20288;-73
2023/10/29 12:16:01;;;;;;;;;;;19.30;99.90;;;;;;5093496;28;20395;-73
2023/10/29 12:18:27;;;;;;;;;;;19.20;99.90;;;;;;5093587;28;19919;-73
2023/10/29 12:21:04;;;;;;;;;;;19.20;99.90;;;;;;5092165;28;19908;-73
2023/10/29 12:23:31;;;;;;;;;;;19.30;99.90;;;;;;5079538;28;19916;-73
2023/10/29 12:26:00;;;;;;;;;;;19.20;99.90;;;;;;5093680;28;20010;-73
2023/10/29 12:28:28;;;;;;;;;;;19.20;99.90;;;;;;5093476;28;20011;-74
2023/10/29 12:30:56;;;;;;;;;;;19.20;99.90;;;;;;5093432;28;19916;-72
2023/10/29 12:33:25;;;;;;;;;;;19.20;99.90;;;;;;5093074;28;19986;-73
2023/10/29 12:35:53;;;;;;;;;;;19.10;99.90;;;;;;5085013;28;19912;-72
2023/10/29 12:38:20;;;;;;;;;;;19.10;99.90;;;;;;5073031;28;19912;-72
2023/10/29 12:41:05;;;;;;;;;;;19.00;99.90;;;;;;5072958;28;19940;-74
2023/10/29 12:43:39;;;;;;;;;;;19.00;99.90;;;;;;5072872;28;19966;-74
2023/10/29 12:46:15;;;;;;;;;;;19.00;99.90;;;;;;5072701;28;19944;-73
2023/10/29 12:49:00;;;;;;;;;;;18.90;99.90;;;;;;5081430;28;19962;-74
2023/10/29 12:51:37;;;;;;;;;;;18.80;99.90;;;;;;5110238;28;19919;-72
2023/10/29 12:54:13;;;;;;;;;;;18.80;99.90;;;;;;5113002;28;19908;-73
2023/10/29 12:56:53;;;;;;;;;;;18.70;99.90;;;;;;5094021;28;20401;-73
2023/10/29 12:59:21;;;;;;;;;;;18.60;99.90;;;;;;5092248;28;19915;-74
2023/10/29 13:02:01;;;;;;;;;;;18.60;99.90;;;;;;5092774;28;20010;-74
2023/10/29 13:04:28;;;;;;;;;;;18.50;99.90;;;;;;5097923;28;19912;-73
2023/10/29 13:06:56;;;;;;;;;;;18.40;99.90;;;;;;5112913;28;19908;-73
2023/10/29 13:09:22;;;;;;;;;;;18.30;99.90;;;;;;5112985;28;20378;-73
2023/10/29 13:11:52;;;;;;;;;;;18.30;99.90;;;;;;5101400;28;19966;-73
2023/10/29 13:14:19;;;;;;;;;;;18.40;99.90;;;;;;5092629;28;19908;-73
2023/10/29 13:16:46;;;;;;;;;;;18.20;99.90;;;;;;5092689;28;19916;-72
2023/10/29 13:19:13;;;;;;;;;;;18.20;99.90;;;;;;5107517;28;20448;-73
2023/10/29 13:21:42;;;;;;;;;;;18.20;99.90;;;;;;5112768;28;19965;-73
2023/10/29 13:24:09;;;;;;;;;;;18.10;99.90;;;;;;5112707;28;19907;-73
2023/10/29 13:26:36;;;;;;;;;;;18.10;99.90;;;;;;5112779;28;19914;-73
2023/10/29 13:29:02;;;;;;;;;;;18.10;99.90;;;;;;5112915;28;19912;-75
2023/10/29 13:31:29;;;;;;;;;;;17.90;99.90;;;;;;5096319;28;19927;-73
2023/10/29 13:33:56;;;;;;;;;;;18.00;99.90;;;;;;5092271;28;19915;-74
2023/10/29 13:36:23;;;;;;;;;;;18.00;99.90;;;;;;5092301;28;19931;-73
2023/10/29 13:38:50;;;;;;;;;;;17.90;99.90;;;;;;5092406;28;19912;-74
2023/10/29 13:41:17;;;;;;;;;;;17.80;99.90;;;;;;5092522;28;20004;-73
2023/10/29 13:43:43;;;;;;;;;;;17.80;99.90;;;;;;5092053;28;19908;-72
2023/10/29 13:46:10;;;;;;;;;;;17.80;99.90;;;;;;5091730;28;19916;-74
2023/10/29 13:48:37;;;;;;;;;;;17.70;99.90;;;;;;5091773;28;19919;-74
2023/10/29 13:51:04;;;;;;;;;;;17.70;99.90;;;;;;5092340;28;19916;-73
2023/10/29 13:53:31;;;;;;;;;;;17.70;99.90;;;;;;5092227;28;19908;-72
2023/10/29 13:56:11;;;;;;;;;;;17.70;99.90;;;;;;5110933;28;19918;-72
2023/10/29 13:58:38;;;;;;;;;;;17.70;99.90;;;;;;5105384;28;19969;-73
2023/10/29 14:01:05;;;;;;;;;;;17.70;99.90;;;;;;5092292;28;19914;-73
2023/10/29 14:03:31;;;;;;;;;;;17.70;99.90;;;;;;5092111;28;19959;-73
2023/10/29 14:05:58;;;;;;;;;;;17.70;99.90;;;;;;5107770;28;19915;-73
2023/10/29 14:08:25;;;;;;;;;;;17.60;99.90;;;;;;5112447;28;19908;-72
2023/10/29 14:10:51;;;;;;;;;;;17.60;99.90;;;;;;5115994;28;19916;-71
2023/10/29 14:13:18;;;;;;;;;;;17.60;99.90;;;;;;5114111;28;19911;-73
2023/10/29 14:15:45;;;;;;;;;;;17.70;99.90;;;;;;5115647;28;19912;-73
2023/10/29 14:18:11;;;;;;;;;;;17.60;99.90;;;;;;5115927;28;20228;-74